Time;durP1;ratioP1;P1;durP2;ratioP2;P2;SDS_P1;SDS_P2;PMS_P1;PMS_P2;Temp;Humidity;BMP_temperature;BMP_pressure;BME280_temperature;BME280_humidity;BME280_pressure;Samples;Min_cycle;Max_cycle;Signal;HPM_P1;HPM_P2
2022/06/05 00:02:16;;;;;;;3.53;3.30;;;;;;;19.45;59.90;101036.47;4978999;28;20045;-75
2022/06/05 00:04:54;;;;;;;3.30;3.05;;;;;;;19.44;59.95;101042.00;4957909;28;20942;-76
2022/06/05 00:07:51;;;;;;;3.50;3.30;;;;;;;19.41;60.13;101047.75;4975423;28;20095;-76
2022/06/05 00:10:23;;;;;;;4.68;3.25;;;;;;;19.45;59.94;101049.06;4961223;28;20208;-73
2022/06/05 00:13:06;;;;;;;3.20;3.10;;;;;;;19.42;59.93;101044.03;4955310;28;20010;-76
2022/06/05 00:15:32;;;;;;;2.97;2.78;;;;;;;19.39;60.12;101042.59;4952252;28;20022;-73
2022/06/05 00:17:58;;;;;;;4.97;3.28;;;;;;;19.35;60.18;101044.81;4957832;28;20794;-76
2022/06/05 00:20:24;;;;;;;3.60;3.30;;;;;;;19.35;60.40;101039.44;4941272;28;20018;-76
2022/06/05 00:22:49;;;;;;;3.30;3.10;;;;;;;19.37;60.17;101041.94;4957045;28;20034;-75
2022/06/05 00:25:15;;;;;;;4.40;3.13;;;;;;;19.43;59.81;101046.56;4956617;28;20019;-73
2022/06/05 00:27:52;;;;;;;3.10;3.00;;;;;;;19.43;59.65;101046.56;4977475;28;20019;-74
2022/06/05 00:30:37;;;;;;;2.92;2.72;;;;;;;19.47;59.42;101039.78;4975844;28;20014;-74
2022/06/05 00:33:08;;;;;;;3.15;3.03;;;;;;;19.42;59.72;101039.53;4943371;28;20125;-73
2022/06/05 00:35:35;;;;;;;3.10;3.00;;;;;;;19.39;59.89;101029.16;4963730;28;20085;-74
2022/06/05 00:38:24;;;;;;;3.65;3.25;;;;;;;19.35;59.75;101027.88;4941175;28;20017;-76
2022/06/05 00:41:27;;;;;;;3.80;3.08;;;;;;;19.33;59.76;101029.91;4955240;28;20428;-75
2022/06/05 00:43:54;;;;;;;3.30;3.08;;;;;;;19.30;59.95;101024.91;4987103;28;20026;-76
2022/06/05 00:46:21;;;;;;;3.00;2.90;;;;;;;19.30;59.73;101019.56;4957743;28;20051;-75
2022/06/05 00:48:46;;;;;;;4.05;3.30;;;;;;;19.27;59.91;101020.75;4956221;28;20014;-75
2022/06/05 00:51:12;;;;;;;3.70;3.50;;;;;;;19.28;59.64;101018.91;4938472;28;20261;-75
2022/06/05 00:53:37;;;;;;;3.33;3.22;;;;;;;19.23;59.63;101006.03;4953798;28;20899;-75
2022/06/05 00:56:03;;;;;;;2.97;2.78;;;;;;;19.24;59.67;101013.09;4939832;28;20026;-75
2022/06/05 00:58:28;;;;;;;3.58;3.38;;;;;;;19.21;59.85;101000.88;4940403;28;20078;-72
2022/06/05 01:00:54;;;;;;;3.15;3.03;;;;;;;19.18;59.75;100995.88;4930044;28;20002;-76
2022/06/05 01:03:20;;;;;;;3.30;3.00;;;;;;;19.21;59.66;101000.88;4940292;28;20775;-77
2022/06/05 01:05:46;;;;;;;3.33;3.20;;;;;;;19.15;59.89;100995.41;4940130;28;20042;-76
2022/06/05 01:08:12;;;;;;;3.00;2.90;;;;;;;19.11;59.92;100997.66;4938627;28;20129;-76
2022/06/05 01:11:12;;;;;;;3.15;3.05;;;;;;;19.14;59.66;100986.53;4940719;28;20131;-73
2022/06/05 01:13:38;;;;;;;2.92;2.83;;;;;;;19.08;60.21;100991.81;4956119;28;20171;-75
2022/06/05 01:16:15;;;;;;;2.90;2.80;;;;;;;19.09;60.16;100991.63;4952748;28;20018;-75
2022/06/05 01:18:52;;;;;;;3.33;3.10;;;;;;;19.07;60.09;100988.31;4973110;28;20144;-76
2022/06/05 01:21:34;;;;;;;3.00;2.80;;;;;;;19.09;60.02;100990.81;4929374;28;20467;-75
2022/06/05 01:24:24;;;;;;;4.88;3.00;;;;;;;19.08;60.23;100981.94;4936898;28;20035;-72
2022/06/05 01:26:52;;;;;;;2.90;2.80;;;;;;;19.01;60.54;100981.03;4919294;28;20172;-76
2022/06/05 01:29:29;;;;;;;4.93;3.05;;;;;;;19.01;60.67;100983.72;4954113;28;20488;-75
2022/06/05 01:31:57;;;;;;;3.00;2.80;;;;;;;19.03;60.58;100984.34;4924303;28;20019;-70
2022/06/05 01:34:30;;;;;;;3.10;3.00;;;;;;;18.94;60.41;100977.41;4916735;28;20026;-75
2022/06/05 01:36:58;;;;;;;3.20;3.10;;;;;;;18.92;61.13;100966.88;4919979;28;20122;-74
2022/06/05 01:39:46;;;;;;;3.13;2.95;;;;;;;18.90;61.07;100965.41;4927036;28;20121;-76
2022/06/05 01:42:19;;;;;;;7.05;3.30;;;;;;;18.82;61.39;100948.34;4988726;28;20064;-75
2022/06/05 01:44:46;;;;;;;3.15;2.85;;;;;;;18.84;61.26;100950.88;4977267;28;20030;-75
2022/06/05 01:47:23;;;;;;;3.55;3.28;;;;;;;18.77;61.68;100950.78;4944857;28;20554;-75
2022/06/05 01:49:54;;;;;;;3.40;3.22;;;;;;;18.68;61.44;100941.16;4973310;28;20015;-76
2022/06/05 01:52:35;;;;;;;3.17;2.95;;;;;;;18.67;61.72;100943.00;4955705;28;20429;-75
2022/06/05 01:55:17;;;;;;;3.25;3.10;;;;;;;18.68;61.81;100930.44;4961098;28;20034;-75
2022/06/05 01:57:43;;;;;;;3.08;2.88;;;;;;;18.66;61.56;100929.78;4981872;28;20019;-74
2022/06/05 02:00:13;;;;;;;3.10;3.00;;;;;;;18.68;61.72;100922.38;4983426;28;20018;-74
2022/06/05 02:03:06;;;;;;;3.20;3.00;;;;;;;18.62;62.08;100913.25;4965023;28;20507;-76
2022/06/05 02:05:44;;;;;;;3.38;3.10;;;;;;;18.64;61.98;100907.69;4939015;28;20014;-76
2022/06/05 02:08:21;;;;;;;3.25;3.10;;;;;;;18.65;61.99;100904.81;4937906;28;20011;-76
2022/06/05 02:10:58;;;;;;;4.82;3.30;;;;;;;18.63;62.02;100887.28;4997483;28;20638;-75
2022/06/05 02:13:24;;;;;;;3.30;3.10;;;;;;;18.67;62.17;100883.19;4962963;28;20800;-74
2022/06/05 02:15:49;;;;;;;3.47;3.17;;;;;;;18.69;62.00;100883.84;4995051;28;20018;-76
2022/06/05 02:18:15;;;;;;;3.10;3.00;;;;;;;18.67;62.44;100867.09;4952802;28;20026;-73
2022/06/05 02:20:41;;;;;;;3.60;3.40;;;;;;;18.68;62.32;100860.75;4983498;28;20352;-72
2022/06/05 02:23:07;;;;;;;3.30;3.00;;;;;;;18.56;62.67;100865.75;4983833;28;20029;-75
2022/06/05 02:25:34;;;;;;;5.13;3.28;;;;;;;18.63;62.75;100864.00;4984841;28;20188;-76
2022/06/05 02:28:00;;;;;;;3.13;2.92;;;;;;;18.69;62.18;100851.69;4968605;28;20018;-73
2022/06/05 02:30:29;;;;;;;3.40;3.15;;;;;;;18.66;62.44;100841.34;4967012;28;20007;-75
2022/06/05 02:33:33;;;;;;;3.13;2.92;;;;;;;18.65;62.65;100835.13;4985371;28;20038;-72
2022/06/05 02:36:18;;;;;;;3.85;3.17;;;;;;;18.61;62.34;100827.66;4944467;28;20432;-75
2022/06/05 02:39:20;;;;;;;3.25;3.15;;;;;;;18.61;62.52;100812.41;4950259;28;20065;-72
2022/06/05 02:41:48;;;;;;;5.13;3.05;;;;;;;18.60;62.46;100812.59;4998105;28;20015;-76
2022/06/05 02:44:34;;;;;;;3.30;3.10;;;;;;;18.60;62.48;100793.84;4969792;28;20023;-73
2022/06/05 02:47:14;;;;;;;3.30;3.20;;;;;;;18.60;62.30;100788.47;4987758;28;20906;-76
2022/06/05 02:49:53;;;;;;;3.65;3.40;;;;;;;18.62;62.43;100786.44;4987011;28;20024;-76
2022/06/05 02:52:18;;;;;;;3.47;3.17;;;;;;;18.61;62.64;100785.59;4993336;28;20068;-75
2022/06/05 02:55:04;;;;;;;3.63;3.30;;;;;;;18.53;62.86;100767.78;4974340;28;20045;-76
2022/06/05 02:57:30;;;;;;;3.83;3.35;;;;;;;18.52;62.80;100774.16;4976548;28;20487;-75
2022/06/05 02:59:55;;;;;;;3.67;3.47;;;;;;;18.45;62.79;100765.22;4969799;28;20095;-73
2022/06/05 03:05:05;;;;;;;;;;;;;;;18.44;62.89;100763.56;4988878;28;20960;-72
2022/06/05 03:07:30;;;;;;;3.65;3.30;;;;;;;18.43;62.90;100761.91;4985510;28;19949;-77
2022/06/05 03:09:55;;;;;;;3.15;3.00;;;;;;;18.43;63.21;100753.03;4993039;28;20026;-76
2022/06/05 03:12:21;;;;;;;3.47;3.17;;;;;;;18.42;62.89;100754.88;4999353;28;20034;-74
2022/06/05 03:14:48;;;;;;;3.30;3.08;;;;;;;18.39;63.09;100749.06;4971721;28;20042;-75
2022/06/05 03:17:14;;;;;;;3.50;3.25;;;;;;;18.44;63.19;100752.84;4960165;28;20221;-72
2022/06/05 03:19:40;;;;;;;3.58;3.25;;;;;;;18.42;62.64;100757.56;4988818;28;20045;-76
2022/06/05 03:22:05;;;;;;;3.38;3.28;;;;;;;18.47;62.42;100757.84;4973632;28;20011;-76
2022/06/05 03:24:31;;;;;;;3.70;3.40;;;;;;;18.44;62.56;100755.53;4989825;28;20034;-76
2022/06/05 03:26:56;;;;;;;3.55;3.35;;;;;;;18.42;62.91;100760.25;4961443;28;20849;-73
2022/06/05 03:29:22;;;;;;;3.63;3.10;;;;;;;18.43;62.71;100751.19;4973716;28;20064;-77
2022/06/05 03:31:47;;;;;;;3.72;3.40;;;;;;;18.47;62.69;100759.69;4961905;28;20989;-76
2022/06/05 03:34:13;;;;;;;3.47;3.20;;;;;;;18.41;62.81;100758.56;4955867;28;20159;-75
2022/06/05 03:36:38;;;;;;;3.50;3.30;;;;;;;18.42;62.47;100752.22;4931457;28;20480;-75
2022/06/05 03:39:04;;;;;;;3.63;3.38;;;;;;;18.42;62.82;100746.84;4971730;28;20034;-75
2022/06/05 03:41:29;;;;;;;3.22;3.13;;;;;;;18.45;62.63;100743.78;4939096;28;20125;-73
2022/06/05 03:43:55;;;;;;;3.28;3.17;;;;;;;18.46;62.87;100744.63;4955228;28;20027;-75
2022/06/05 03:46:20;;;;;;;3.60;3.30;;;;;;;18.47;62.71;100741.78;4961778;28;20003;-76
2022/06/05 03:48:45;;;;;;;3.60;3.40;;;;;;;18.52;62.45;100744.69;4951832;28;20142;-75
2022/06/05 03:51:17;;;;;;;3.42;3.22;;;;;;;18.50;62.63;100741.38;4971258;28;20065;-76
2022/06/05 03:53:43;;;;;;;5.30;3.47;;;;;;;18.55;62.58;100743.50;4947631;28;20058;-72
2022/06/05 03:56:13;;;;;;;3.50;3.30;;;;;;;18.52;62.67;100738.50;4921329;28;20990;-73
2022/06/05 03:58:39;;;;;;;3.60;3.40;;;;;;;18.50;62.70;100744.06;4923229;28;20114;-72
2022/06/05 04:01:11;;;;;;;3.80;3.60;;;;;;;18.52;62.92;100739.34;4939039;28;20929;-76
2022/06/05 04:03:37;;;;;;;3.83;3.50;;;;;;;18.53;62.84;100735.63;4953997;28;21055;-76
2022/06/05 04:06:09;;;;;;;3.88;3.35;;;;;;;18.56;62.72;100729.06;4943198;28;20018;-76
2022/06/05 04:08:35;;;;;;;3.40;3.10;;;;;;;18.60;62.48;100740.22;4945348;28;20018;-75
2022/06/05 04:11:11;;;;;;;3.60;3.33;;;;;;;18.63;62.88;100723.78;4954284;28;20130;-73
2022/06/05 04:13:37;;;;;;;4.03;3.40;;;;;;;18.64;62.67;100720.06;4922265;28;20118;-76
2022/06/05 04:16:11;;;;;;;3.53;3.33;;;;;;;18.66;62.60;100708.16;4944032;28;20025;-71
2022/06/05 04:18:37;;;;;;;3.72;3.40;;;;;;;18.66;62.70;100710.81;4945255;28;20265;-76
2022/06/05 04:21:07;;;;;;;3.33;3.03;;;;;;;18.67;62.65;100714.31;4938946;28;20931;-75
2022/06/05 04:23:33;;;;;;;3.60;3.30;;;;;;;18.73;62.25;100735.03;4956160;28;20031;-74
2022/06/05 04:25:58;;;;;;;3.63;3.42;;;;;;;18.81;62.13;100742.94;4940300;28;20082;-75
2022/06/05 04:28:23;;;;;;;3.92;3.63;;;;;;;18.76;62.57;100758.75;4955970;28;20348;-74
2022/06/05 04:30:49;;;;;;;3.50;3.40;;;;;;;18.82;62.83;100758.00;4962257;28;20022;-73
2022/06/05 04:33:14;;;;;;;3.50;3.40;;;;;;;18.76;62.97;100769.47;4945941;28;20990;-75
2022/06/05 04:35:40;;;;;;;3.92;3.63;;;;;;;18.83;62.82;100770.38;4970230;28;20034;-76
2022/06/05 04:38:05;;;;;;;3.58;3.38;;;;;;;18.87;62.69;100785.09;4952313;28;20603;-77
2022/06/05 04:40:31;;;;;;;3.83;3.53;;;;;;;18.88;62.68;100785.91;4969706;28;20022;-75
2022/06/05 04:42:56;;;;;;;3.35;3.20;;;;;;;18.87;62.90;100785.09;4958723;28;20010;-72
2022/06/05 04:45:21;;;;;;;3.47;3.38;;;;;;;18.93;62.06;100786.19;4961112;28;20289;-73
2022/06/05 04:47:47;;;;;;;3.58;3.47;;;;;;;18.93;62.92;100798.78;4984165;28;20335;-77
2022/06/05 04:50:12;;;;;;;4.10;3.80;;;;;;;18.92;62.80;100807.84;4976142;28;20515;-75
2022/06/05 04:52:38;;;;;;;4.18;3.80;;;;;;;18.93;62.83;100801.47;4955412;28;20944;-76
2022/06/05 04:55:03;;;;;;;3.85;3.65;;;;;;;18.94;62.43;100809.31;4973498;28;20212;-76
2022/06/05 04:57:29;;;;;;;4.10;3.83;;;;;;;19.00;62.72;100823.81;4975959;28;20898;-73
2022/06/05 04:59:54;;;;;;;4.45;4.03;;;;;;;18.97;62.25;100827.69;4983741;28;20018;-75
2022/06/05 05:02:20;;;;;;;3.72;3.53;;;;;;;19.02;62.27;100832.47;4974181;28;20019;-75
2022/06/05 05:04:47;;;;;;;3.85;3.65;;;;;;;19.04;62.83;100831.28;4955732;28;20029;-75
2022/06/05 05:07:16;;;;;;;4.20;3.80;;;;;;;19.05;62.80;100834.81;4961537;28;20091;-74
2022/06/05 05:09:42;;;;;;;3.80;3.50;;;;;;;19.08;62.34;100839.78;4970778;28;20503;-74
2022/06/05 05:12:09;;;;;;;3.80;3.60;;;;;;;19.09;62.78;100841.41;4974441;28;20065;-73
2022/06/05 05:14:36;;;;;;;3.92;3.60;;;;;;;19.12;62.70;100837.53;4972792;28;20196;-74
2022/06/05 05:17:02;;;;;;;3.65;3.33;;;;;;;19.17;62.55;100838.63;4946566;28;20007;-73
2022/06/05 05:19:28;;;;;;;3.60;3.50;;;;;;;19.17;62.35;100830.56;4993617;28;20025;-74
2022/06/05 05:21:54;;;;;;;4.32;4.00;;;;;;;19.19;62.74;100831.22;4992556;28;20013;-74
2022/06/05 05:24:19;;;;;;;4.05;3.72;;;;;;;19.15;62.92;100824.59;4994203;28;20010;-74
2022/06/05 05:26:45;;;;;;;3.97;3.78;;;;;;;19.21;62.91;100831.03;4994517;28;20010;-74
2022/06/05 05:29:10;;;;;;;4.18;3.88;;;;;;;19.20;62.45;100826.69;4975120;28;20014;-74
2022/06/05 05:31:39;;;;;;;3.70;3.60;;;;;;;19.24;62.50;100821.78;4980251;28;19998;-75
2022/06/05 05:34:05;;;;;;;4.25;4.05;;;;;;;19.26;62.64;100823.22;4955803;28;20078;-74
2022/06/05 05:36:31;;;;;;;4.13;3.92;;;;;;;19.30;63.00;100816.44;4956082;28;20114;-74
2022/06/05 05:44:25;;;;;;;4.28;3.90;;;;;;;19.34;62.54;100800.81;4943212;28;20139;-75
2022/06/05 05:46:51;;;;;;;4.15;3.80;;;;;;;19.39;63.01;100803.75;4963470;28;20018;-75
2022/06/05 05:49:16;;;;;;;4.22;4.03;;;;;;;19.37;63.20;100801.25;4973208;28;20025;-75
2022/06/05 05:51:42;;;;;;;4.35;4.10;;;;;;;19.38;63.70;100799.41;4976274;28;20037;-74
2022/06/05 05:54:08;;;;;;;3.97;3.75;;;;;;;19.43;62.83;100799.66;4977100;28;20030;-74
2022/06/05 05:56:34;;;;;;;5.93;4.15;;;;;;;19.47;63.63;100795.53;4960587;28;20612;-74
2022/06/05 05:58:59;;;;;;;4.10;3.90;;;;;;;19.47;63.16;100787.47;4975497;28;20133;-75
2022/06/05 06:01:25;;;;;;;3.97;3.67;;;;;;;19.50;63.11;100784.44;4961722;28;20018;-75
2022/06/05 06:03:50;;;;;;;4.45;4.15;;;;;;;19.58;63.64;100782.63;4965621;28;20637;-77
2022/06/05 06:06:15;;;;;;;4.45;3.78;;;;;;;19.62;62.40;100770.47;4949467;28;20011;-75
2022/06/05 06:08:41;;;;;;;4.30;4.00;;;;;;;19.68;63.13;100761.63;4969805;28;20249;-74
2022/06/05 06:11:07;;;;;;;4.07;3.88;;;;;;;19.61;63.10;100768.81;4983786;28;20932;-74
2022/06/05 06:13:32;;;;;;;4.15;3.85;;;;;;;19.60;63.40;100746.50;4948058;28;20021;-74
2022/06/05 06:15:57;;;;;;;4.50;4.15;;;;;;;19.60;63.16;100745.66;4970247;28;20014;-74
2022/06/05 06:18:23;;;;;;;4.43;4.18;;;;;;;19.63;63.62;100742.59;4982879;28;20918;-73
2022/06/05 06:20:48;;;;;;;3.97;3.80;;;;;;;19.62;63.49;100740.94;4984872;28;20313;-75
2022/06/05 06:23:14;;;;;;;3.92;3.72;;;;;;;19.56;63.86;100735.31;4985782;28;20037;-75
2022/06/05 06:25:40;;;;;;;4.20;3.90;;;;;;;19.55;63.31;100724.78;5006725;28;20003;-75
2022/06/05 06:28:05;;;;;;;4.30;4.10;;;;;;;19.56;63.32;100729.97;4960023;28;20007;-73
2022/06/05 06:30:32;;;;;;;4.25;3.95;;;;;;;19.59;64.39;100723.38;4975068;28;20803;-74
2022/06/05 06:32:57;;;;;;;4.85;3.95;;;;;;;19.65;64.12;100721.75;4923679;28;20102;-75
2022/06/05 06:35:23;;;;;;;4.30;3.90;;;;;;;19.67;63.54;100708.94;4938871;28;20126;-74
2022/06/05 06:37:48;;;;;;;4.10;3.83;;;;;;;19.72;64.07;100706.50;4971370;28;20010;-75
2022/06/05 06:40:14;;;;;;;3.95;3.75;;;;;;;19.86;64.33;100696.69;4953825;28;20038;-74
2022/06/05 06:42:39;;;;;;;4.15;3.85;;;;;;;19.88;63.70;100692.78;4974222;28;20294;-75
2022/06/05 06:45:05;;;;;;;4.07;3.78;;;;;;;19.83;63.87;100689.88;4920649;28;20911;-74
2022/06/05 06:47:32;;;;;;;4.30;3.80;;;;;;;19.87;64.03;100688.44;4939308;28;20010;-75
2022/06/05 06:49:58;;;;;;;4.07;3.88;;;;;;;19.90;64.70;100677.28;4942630;28;20014;-74
2022/06/05 06:52:23;;;;;;;3.92;3.72;;;;;;;19.92;63.79;100678.97;4955582;28;20092;-74
2022/06/05 06:54:50;;;;;;;4.20;4.00;;;;;;;19.95;63.33;100674.00;4951862;28;20255;-75
2022/06/05 06:57:15;;;;;;;3.80;3.60;;;;;;;19.98;62.71;100675.47;4944538;28;20011;-76
2022/06/05 06:59:41;;;;;;;4.55;3.92;;;;;;;19.91;63.40;100667.38;4960268;28;20014;-74
2022/06/05 07:02:06;;;;;;;3.78;3.58;;;;;;;19.90;63.56;100660.38;4978612;28;20768;-74
2022/06/05 07:04:32;;;;;;;3.63;3.40;;;;;;;19.96;63.07;100664.09;4994597;28;20036;-75
2022/06/05 07:06:58;;;;;;;4.32;4.03;;;;;;;19.97;63.06;100660.41;4955604;28;19995;-75
2022/06/05 07:09:23;;;;;;;3.60;3.50;;;;;;;20.05;62.42;100660.19;4939154;28;20023;-74
2022/06/05 07:11:49;;;;;;;4.32;3.70;;;;;;;20.05;62.73;100657.50;4970810;28;20006;-74
2022/06/05 07:14:16;;;;;;;4.00;3.80;;;;;;;20.06;62.45;100646.56;4978752;28;20042;-75
2022/06/05 07:16:42;;;;;;;4.20;3.90;;;;;;;20.17;62.37;100650.53;4964049;28;20932;-75
2022/06/05 07:19:07;;;;;;;4.10;3.90;;;;;;;20.22;62.37;100648.06;4957273;28;20026;-75
2022/06/05 07:21:33;;;;;;;4.00;3.90;;;;;;;20.28;62.83;100634.84;4922380;28;20011;-72
2022/06/05 07:23:58;;;;;;;4.10;3.90;;;;;;;20.42;62.57;100637.34;4956395;28;20033;-74
2022/06/05 07:26:25;;;;;;;3.80;3.70;;;;;;;20.49;62.36;100636.53;4923308;28;20038;-76
2022/06/05 07:28:50;;;;;;;4.05;3.85;;;;;;;20.51;62.24;100635.28;4922983;28;20491;-75
2022/06/05 07:31:16;;;;;;;3.97;3.67;;;;;;;20.71;61.23;100645.25;4986801;28;20028;-75
2022/06/05 07:33:42;;;;;;;4.13;3.92;;;;;;;20.83;62.37;100648.19;4956098;28;20834;-76
2022/06/05 07:36:10;;;;;;;4.15;3.92;;;;;;;20.81;61.69;100651.06;4973741;28;20622;-74
2022/06/05 07:38:36;;;;;;;3.90;3.65;;;;;;;20.87;61.58;100661.00;4973465;28;20041;-74
2022/06/05 07:41:02;;;;;;;3.83;3.63;;;;;;;21.02;61.61;100662.66;4947688;28;20013;-75
2022/06/05 07:43:27;;;;;;;4.38;4.07;;;;;;;21.11;62.06;100656.03;4995187;28;20526;-76
2022/06/05 07:45:53;;;;;;;4.25;3.80;;;;;;;21.25;61.30;100672.97;4946997;28;20026;-75
2022/06/05 07:48:19;;;;;;;4.38;4.07;;;;;;;21.26;60.01;100669.25;4983062;28;20022;-75
2022/06/05 07:56:16;;;;;;;3.80;3.67;;;;;;;21.44;59.53;100663.19;4956224;28;20371;-75
2022/06/05 07:58:42;;;;;;;3.97;3.78;;;;;;;21.53;59.54;100659.28;4956145;28;20006;-75
2022/06/05 08:01:07;;;;;;;4.07;3.70;;;;;;;21.55;59.18;100661.78;4916622;28;20281;-74
2022/06/05 08:03:36;;;;;;;3.90;3.63;;;;;;;21.62;59.65;100665.25;4964609;28;20022;-74
2022/06/05 08:06:01;;;;;;;4.68;3.85;;;;;;;21.77;59.86;100659.59;4946282;28;20116;-74
2022/06/05 08:08:27;;;;;;;3.90;3.70;;;;;;;21.79;59.05;100668.31;4975605;28;20099;-75
2022/06/05 08:10:53;;;;;;;3.78;3.58;;;;;;;21.80;59.58;100664.59;4964051;28;20023;-74
2022/06/05 08:13:18;;;;;;;4.00;3.80;;;;;;;21.73;58.71;100661.06;4954366;28;20488;-75
2022/06/05 08:15:44;;;;;;;3.80;3.63;;;;;;;21.65;58.59;100664.03;4970255;28;20481;-75
2022/06/05 08:18:10;;;;;;;4.07;3.90;;;;;;;21.71;60.38;100660.47;4932846;28;20817;-74
2022/06/05 08:20:35;;;;;;;4.30;3.90;;;;;;;21.66;60.96;100671.03;4928106;28;20118;-75
2022/06/05 08:23:02;;;;;;;4.03;3.83;;;;;;;21.64;61.86;100675.81;4976718;28;20856;-75
2022/06/05 08:25:28;;;;;;;5.13;4.05;;;;;;;21.50;61.08;100675.81;4958345;28;20022;-74
2022/06/05 08:27:53;;;;;;;4.10;3.80;;;;;;;21.41;61.73;100666.31;4962889;28;20026;-75
2022/06/05 08:30:19;;;;;;;3.97;3.78;;;;;;;21.33;61.60;100661.16;4954613;28;20029;-75
2022/06/05 08:32:44;;;;;;;4.07;3.88;;;;;;;21.25;62.06;100663.03;4993607;28;20896;-71
2022/06/05 08:35:10;;;;;;;4.07;3.90;;;;;;;21.12;62.56;100665.72;5012067;28;20948;-74
2022/06/05 08:43:18;;;;;;;4.60;4.22;;;;;;;20.71;63.66;100677.53;4986511;28;20643;-76
2022/06/05 08:46:09;;;;;;;5.10;4.55;;;;;;;20.58;64.08;100675.63;4982360;28;20769;-77
2022/06/05 08:48:38;;;;;;;4.88;4.47;;;;;;;20.53;64.72;100681.63;4959563;28;20145;-76
2022/06/05 08:51:12;;;;;;;6.28;4.80;;;;;;;20.49;65.81;100675.00;4930849;28;20117;-73
2022/06/05 08:54:06;;;;;;;6.90;5.07;;;;;;;20.44;67.54;100682.84;4982836;28;20018;-77
2022/06/05 08:56:43;;;;;;;5.22;4.72;;;;;;;20.34;68.37;100677.84;4956826;28;20146;-76
2022/06/05 08:59:27;;;;;;;6.90;4.70;;;;;;;20.41;69.94;100677.88;4987924;28;20053;-76
2022/06/05 09:02:10;;;;;;;5.32;4.80;;;;;;;20.32;70.45;100676.41;4963542;28;20049;-76
2022/06/05 09:04:58;;;;;;;4.82;4.63;;;;;;;20.40;71.76;100682.44;4960769;28;20897;-77
2022/06/05 09:07:29;;;;;;;5.32;4.93;;;;;;;20.29;70.78;100683.03;4980475;28;20017;-77
2022/06/05 09:10:08;;;;;;;5.22;4.85;;;;;;;20.37;70.61;100676.63;4952273;28;20010;-76
2022/06/05 09:12:40;;;;;;;4.55;4.35;;;;;;;20.30;69.57;100679.28;4949222;28;20434;-75
2022/06/05 09:15:30;;;;;;;6.40;4.78;;;;;;;20.36;69.69;100680.34;4945725;28;20042;-76
2022/06/05 09:17:57;;;;;;;5.15;4.75;;;;;;;20.30;70.41;100681.16;4939889;28;20704;-76
2022/06/05 09:20:49;;;;;;;4.72;4.43;;;;;;;20.33;69.70;100680.75;4935548;28;20032;-75
2022/06/05 09:23:30;;;;;;;4.90;4.53;;;;;;;20.40;70.30;100689.66;4955377;28;20972;-77
2022/06/05 09:26:06;;;;;;;5.10;4.63;;;;;;;20.38;70.17;100697.91;4982844;28;20116;-76
2022/06/05 09:29:12;;;;;;;4.85;4.60;;;;;;;20.29;71.20;100699.16;4959550;28;20827;-76
2022/06/05 09:31:50;;;;;;;5.45;4.90;;;;;;;20.29;72.27;100698.31;4978202;28;20424;-74
2022/06/05 09:34:21;;;;;;;5.80;5.35;;;;;;;20.10;73.24;100700.72;4967604;28;20069;-76
2022/06/05 09:37:17;;;;;;;5.50;5.00;;;;;;;20.05;73.33;100690.59;4938096;28;20026;-76
2022/06/05 09:39:45;;;;;;;6.03;5.72;;;;;;;19.99;73.87;100695.94;4935982;28;20120;-73
2022/06/05 09:42:56;;;;;;;9.90;9.00;;;;;;;20.22;72.88;100701.81;4949645;28;20006;-77
2022/06/05 09:45:48;;;;;;;6.25;5.85;;;;;;;20.24;73.95;100705.09;4944042;28;20663;-78
2022/06/05 09:48:29;;;;;;;5.93;5.63;;;;;;;20.26;74.35;100696.84;4945406;28;20364;-76
2022/06/05 09:50:55;;;;;;;6.22;5.90;;;;;;;20.27;75.27;100703.06;4984398;28;20098;-74
2022/06/05 09:53:27;;;;;;;6.55;6.05;;;;;;;20.15;77.32;100702.81;4947206;28;20928;-76
2022/06/05 09:56:11;;;;;;;6.50;6.00;;;;;;;19.95;79.08;100694.66;4945679;28;20175;-76
2022/06/05 09:58:49;;;;;;;7.20;6.50;;;;;;;19.72;80.48;100701.13;4971983;28;20542;-77
2022/06/05 10:01:25;;;;;;;7.35;6.88;;;;;;;19.65;82.89;100689.53;4940595;28;20399;-76
2022/06/05 10:03:50;;;;;;;7.22;6.63;;;;;;;19.66;83.01;100681.28;4981176;28;20440;-73
2022/06/05 10:06:36;;;;;;;7.40;6.70;;;;;;;19.71;84.12;100684.22;4959394;28;20019;-75
2022/06/05 10:09:12;;;;;;;7.75;7.05;;;;;;;19.66;84.66;100675.09;4961087;28;20027;-76
2022/06/05 10:12:03;;;;;;;7.55;7.00;;;;;;;19.67;85.29;100687.47;4960591;28;20145;-72
2022/06/05 10:14:31;;;;;;;7.45;6.75;;;;;;;19.47;85.24;100669.41;4973754;28;20038;-73
2022/06/05 10:17:02;;;;;;;7.65;6.93;;;;;;;19.34;86.22;100667.47;4968112;28;20184;-75
2022/06/05 10:20:07;;;;;;;7.07;6.57;;;;;;;19.15;86.76;100674.38;4950775;28;20021;-75
2022/06/05 10:22:38;;;;;;;7.47;6.97;;;;;;;19.13;87.72;100676.41;4953286;28;20168;-75
2022/06/05 10:25:35;;;;;;;7.13;6.72;;;;;;;19.06;88.25;100667.47;4984775;28;20703;-75
2022/06/05 10:28:12;;;;;;;7.18;6.78;;;;;;;18.86;88.64;100673.47;4962687;28;20050;-75
2022/06/05 10:31:10;;;;;;;7.75;7.13;;;;;;;18.67;89.25;100674.13;4974986;28;20164;-74
2022/06/05 10:33:39;;;;;;;7.82;7.20;;;;;;;18.64;89.35;100674.50;4950313;28;20026;-73
2022/06/05 10:36:17;;;;;;;7.78;7.18;;;;;;;18.50;90.10;100666.34;4968451;28;20803;-74
2022/06/05 10:38:52;;;;;;;7.90;7.32;;;;;;;18.42;90.77;100671.84;4962429;28;20023;-75
2022/06/05 10:41:24;;;;;;;7.53;7.13;;;;;;;18.39;91.03;100652.63;4940755;28;20653;-75
2022/06/05 10:44:11;;;;;;;7.72;7.20;;;;;;;18.40;91.77;100647.06;4939993;28;20217;-75
2022/06/05 10:46:39;;;;;;;8.73;8.13;;;;;;;18.47;92.46;100647.97;4949194;28;20050;-75
2022/06/05 10:49:12;;;;;;;8.20;7.60;;;;;;;18.54;92.32;100646.19;4976774;28;20129;-78
2022/06/05 10:51:48;;;;;;;8.73;7.88;;;;;;;18.53;91.39;100639.16;4947836;28;20022;-75
2022/06/05 10:54:35;;;;;;;8.18;7.47;;;;;;;18.67;91.24;100636.59;4956776;28;20525;-74
2022/06/05 10:57:25;;;;;;;9.27;8.43;;;;;;;19.00;90.95;100623.50;4953237;28;20035;-72
2022/06/05 10:59:56;;;;;;;9.35;8.60;;;;;;;19.27;90.60;100625.53;4952293;28;20894;-72
2022/06/05 11:02:34;;;;;;;8.60;8.00;;;;;;;19.48;89.47;100621.94;4972621;28;20025;-74
2022/06/05 11:05:16;;;;;;;8.40;7.90;;;;;;;19.63;90.02;100613.72;4973501;28;20682;-73
2022/06/05 11:07:58;;;;;;;8.60;7.95;;;;;;;19.66;89.38;100607.97;4951185;28;20030;-76
2022/06/05 11:13:51;;;;;;;8.25;7.65;;;;;;;20.27;88.50;100601.78;4956623;28;20716;-75
2022/06/05 11:16:49;;;;;;;9.63;8.93;;;;;;;20.39;87.17;100588.53;4943139;28;20797;-75
2022/06/05 11:19:35;;;;;;;8.27;7.78;;;;;;;20.53;85.04;100587.53;4956811;28;20741;-75
2022/06/05 11:22:03;;;;;;;9.00;7.57;;;;;;;20.67;84.27;100584.84;4970073;28;20022;-75
2022/06/05 11:24:33;;;;;;;7.97;7.30;;;;;;;20.68;84.58;100575.78;4960191;28;20059;-75
2022/06/05 11:27:18;;;;;;;8.10;7.30;;;;;;;20.62;82.71;100566.66;4942535;28;20076;-75
2022/06/05 11:30:08;;;;;;;7.32;6.82;;;;;;;21.12;81.60;100549.22;4972101;28;20125;-76
2022/06/05 11:33:01;;;;;;;7.30;6.80;;;;;;;21.73;79.86;100546.09;4946181;28;20576;-76
2022/06/05 11:35:45;;;;;;;8.10;7.38;;;;;;;23.08;77.99;100537.75;4965264;28;21628;-76
2022/06/05 11:38:25;;;;;;;7.03;6.60;;;;;;;23.84;72.15;100538.25;4959363;28;20649;-76
2022/06/05 11:41:06;;;;;;;6.65;6.28;;;;;;;24.54;69.73;100534.06;4980838;28;20558;-74
2022/06/05 11:43:34;;;;;;;6.30;5.90;;;;;;;25.07;64.95;100542.28;4946046;28;20851;-76
2022/06/05 11:46:09;;;;;;;5.70;5.30;;;;;;;24.08;66.04;100524.84;4978774;28;20042;-75
2022/06/05 11:48:37;;;;;;;6.00;5.40;;;;;;;23.43;68.62;100521.78;4980534;28;20073;-76
2022/06/05 11:51:17;;;;;;;6.30;5.90;;;;;;;22.77;71.53;100507.16;4969867;28;21510;-76
2022/06/05 11:54:16;;;;;;;5.80;5.40;;;;;;;22.85;72.22;100508.75;4963628;28;20045;-76
2022/06/05 11:57:06;;;;;;;5.85;5.53;;;;;;;23.52;71.21;100514.19;4937534;28;20538;-76
2022/06/05 11:59:39;;;;;;;5.72;5.43;;;;;;;24.48;69.92;100505.25;4973311;28;20030;-76
2022/06/05 12:02:08;;;;;;;5.57;5.30;;;;;;;25.46;64.85;100512.78;4939119;28;20125;-76
2022/06/05 12:04:47;;;;;;;5.38;5.10;;;;;;;25.54;64.47;100509.69;4957204;28;20022;-76
2022/06/05 12:07:13;;;;;;;5.20;4.88;;;;;;;24.89;63.79;100503.50;4932491;28;20093;-76
2022/06/05 12:09:55;;;;;;;5.15;4.65;;;;;;;24.44;63.36;100498.69;4952217;28;21545;-75